createdAt,value
2022-09-06T00:01:25.714Z,71.07
2022-09-06T00:07:27.627Z,72.75
2022-09-06T00:13:29.521Z,74.60
2022-09-06T00:19:31.317Z,73.21
2022-09-06T00:25:33.985Z,72.80
2022-09-06T00:31:35.861Z,72.31
2022-09-06T00:37:37.727Z,70.86
2022-09-06T00:43:40.689Z,70.33
2022-09-06T00:49:47.063Z,72.19
2022-09-06T00:55:49.429Z,72.74
2022-09-06T01:01:51.370Z,71.50
2022-09-06T01:08:16.832Z,72.88
2022-09-06T01:14:37.245Z,71.27
2022-09-06T01:20:54.249Z,71.51
2022-09-06T01:27:24.949Z,73.57
2022-09-06T01:34:05.278Z,73.14
2022-09-06T01:40:08.119Z,72.20
2022-09-06T01:46:09.944Z,72.50
2022-09-06T01:52:26.525Z,71.45
2022-09-06T01:59:06.937Z,71.67
2022-09-06T02:05:14.685Z,70.48
2022-09-06T02:11:17.170Z,70.84
2022-09-06T02:17:23.970Z,73.06
2022-09-06T02:23:31.357Z,73.55
2022-09-06T02:29:34.280Z,73.15
2022-09-06T02:35:45.110Z,71.62
2022-09-06T02:41:48.385Z,71.31
2022-09-06T02:47:50.186Z,70.50
2022-09-06T02:53:52.108Z,71.32
2022-09-06T02:59:53.944Z,71.64
2022-09-06T03:05:56.390Z,72.18
2022-09-06T03:11:58.154Z,71.89
2022-09-06T03:18:00.254Z,71.83
2022-09-06T03:24:02.284Z,71.59
2022-09-06T03:30:06.163Z,71.39
2022-09-06T03:36:07.996Z,72.39
2022-09-06T03:42:09.903Z,72.17
2022-09-06T03:48:11.739Z,71.69
2022-09-06T03:54:13.740Z,71.38
2022-09-06T04:00:15.915Z,71.67
2022-09-06T04:06:17.874Z,71.26
2022-09-06T04:12:19.770Z,71.31
2022-09-06T04:18:22.123Z,72.26
2022-09-06T04:24:24.048Z,72.89
2022-09-06T04:30:26.076Z,72.25
2022-09-06T04:36:28.126Z,72.83
2022-09-06T04:42:30.034Z,72.01
2022-09-06T04:48:31.961Z,70.48
2022-09-06T04:54:33.912Z,71.08
2022-09-06T05:00:36.600Z,70.84
2022-09-06T05:06:40.142Z,71.00
2022-09-06T05:12:44.293Z,70.76
2022-09-06T05:18:46.287Z,68.47
2022-09-06T05:24:48.163Z,69.44
2022-09-06T05:30:50.043Z,69.73
2022-09-06T05:36:51.912Z,68.55
2022-09-06T05:42:53.693Z,67.92
2022-09-06T05:48:58.231Z,66.27
2022-09-06T05:55:00.009Z,68.68
2022-09-06T06:01:16.230Z,68.41
2022-09-06T06:07:18.365Z,67.82
2022-09-06T06:13:20.183Z,67.10
2022-09-06T06:19:22.010Z,62.42
2022-09-06T06:25:26.378Z,65.04
2022-09-06T06:31:30.249Z,61.07
2022-09-06T06:37:36.731Z,63.87
2022-09-06T06:43:38.596Z,61.47
2022-09-06T06:49:40.363Z,62.07
2022-09-06T06:55:48.215Z,62.09
2022-09-06T07:01:57.534Z,59.15
2022-09-06T07:07:59.609Z,59.98
2022-09-06T07:14:01.467Z,57.36
2022-09-06T07:20:18.910Z,55.81
2022-09-06T07:26:26.347Z,54.71
2022-09-06T07:32:28.142Z,52.68
2022-09-06T07:38:31.541Z,52.34
2022-09-06T07:44:33.352Z,51.50
2022-09-06T07:50:51.855Z,51.31
2022-09-06T07:56:55.927Z,50.42
2022-09-06T08:03:00.312Z,48.90
2022-09-06T08:09:03.905Z,48.09
2022-09-06T08:15:06.571Z,50.57
2022-09-06T08:21:13.399Z,50.86
2022-09-06T08:27:15.156Z,48.24
2022-09-06T08:39:54.936Z,47.35
2022-09-06T08:45:57.468Z,45.38
2022-09-06T08:52:18.105Z,45.10
2022-09-06T09:04:57.558Z,44.61
2022-09-06T09:11:10.489Z,45.72
2022-09-06T09:17:27.988Z,41.46
2022-09-06T09:23:31.288Z,41.03
2022-09-06T09:35:52.757Z,35.64
2022-09-06T09:41:55.203Z,38.25
2022-09-06T09:47:57.920Z,36.26
2022-09-06T09:54:02.394Z,37.91
2022-09-06T10:00:13.460Z,37.85
2022-09-06T10:13:47.259Z,36.34
2022-09-06T10:26:46.749Z,38.26
2022-09-06T10:33:00.256Z,38.25
2022-09-06T10:39:43.763Z,39.61
2022-09-06T10:46:05.319Z,37.36
2022-09-06T10:52:11.889Z,38.15
2022-09-06T10:58:19.055Z,39.60
2022-09-06T11:10:57.344Z,36.34
2022-09-06T11:17:05.293Z,37.53
2022-09-06T11:36:50.990Z,37.37
2022-09-06T11:42:53.071Z,36.92
2022-09-06T11:49:02.992Z,35.59
2022-09-06T11:55:10.752Z,37.48
2022-09-06T12:01:12.600Z,37.07
2022-09-06T12:14:28.433Z,35.78
2022-09-06T12:33:41.053Z,35.99
2022-09-06T13:18:51.564Z,35.86
2022-09-06T13:37:41.940Z,37.99
2022-09-06T13:43:45.980Z,35.75
2022-09-06T13:56:48.270Z,36.07
2022-09-06T14:15:46.742Z,36.42
2022-09-06T14:21:48.905Z,36.23
2022-09-06T14:34:15.254Z,37.88
2022-09-06T14:40:17.767Z,37.78
2022-09-06T14:46:22.738Z,37.50
2022-09-06T14:52:39.166Z,38.71
2022-09-06T14:58:42.800Z,37.92
2022-09-06T15:04:47.473Z,36.84
2022-09-06T15:10:56.181Z,37.81
2022-09-06T15:23:32.767Z,39.03
2022-09-06T15:29:34.781Z,38.25
2022-09-06T15:35:38.617Z,38.88
2022-09-06T15:41:41.486Z,38.75
2022-09-06T15:47:43.480Z,40.27
2022-09-06T15:53:46.877Z,38.65
2022-09-06T16:02:09.634Z,39.53
2022-09-06T16:06:53.290Z,39.71
2022-09-06T16:12:55.749Z,41.65
2022-09-06T16:18:59.139Z,43.83
2022-09-06T16:25:01.116Z,44.97
2022-09-06T16:31:08.543Z,44.73
2022-09-06T16:37:10.564Z,47.50
2022-09-06T16:43:13.214Z,46.24
2022-09-06T16:49:17.274Z,51.59
2022-09-06T16:55:19.349Z,53.59
2022-09-06T17:01:21.969Z,49.82
2022-09-06T17:07:24.899Z,53.58
2022-09-06T17:13:27.758Z,52.87
2022-09-06T17:19:30.102Z,52.44
2022-09-06T17:25:32.993Z,53.53
2022-09-06T17:31:35.777Z,61.63
2022-09-06T17:37:37.571Z,55.56
2022-09-06T17:43:39.444Z,54.52
2022-09-06T17:49:42.655Z,53.04
2022-09-06T17:55:47.288Z,56.97
2022-09-06T18:01:49.095Z,54.66
2022-09-06T18:07:51.072Z,56.94
2022-09-06T18:13:57.354Z,56.19
2022-09-06T18:20:02.263Z,58.08
2022-09-06T18:26:08.002Z,60.14
2022-09-06T18:32:09.951Z,60.54
2022-09-06T18:38:12.835Z,61.89
2022-09-06T18:44:14.718Z,60.70
2022-09-06T18:50:17.304Z,59.73
2022-09-06T18:56:19.995Z,62.71
2022-09-06T19:02:23.640Z,60.23
2022-09-06T19:08:25.633Z,62.89
2022-09-06T19:14:27.610Z,68.44
2022-09-06T19:20:29.426Z,69.73
2022-09-06T19:26:34.272Z,64.79
2022-09-06T19:32:36.512Z,65.32
2022-09-06T19:38:59.578Z,63.70
2022-09-06T19:45:00.829Z,65.00
2022-09-06T19:51:08.295Z,66.57
2022-09-06T19:57:10.330Z,64.99
2022-09-06T20:03:12.475Z,65.37
2022-09-06T20:09:16.113Z,66.05
2022-09-06T20:15:17.949Z,65.25
2022-09-06T20:21:21.104Z,67.07
2022-09-06T20:27:23.026Z,65.51
2022-09-06T20:33:24.808Z,66.62
2022-09-06T20:39:26.686Z,66.88
2022-09-06T20:45:28.542Z,64.78
2022-09-06T20:51:31.287Z,66.55
2022-09-06T20:57:33.142Z,68.19
2022-09-06T21:03:38.638Z,66.41
2022-09-06T21:09:40.507Z,73.64
2022-09-06T21:15:42.438Z,68.23
2022-09-06T21:21:44.432Z,68.23
2022-09-06T21:27:46.241Z,69.90
2022-09-06T21:33:54.400Z,71.48
2022-09-06T21:39:56.270Z,69.57
2022-09-06T21:46:02.134Z,70.58
2022-09-06T21:52:04.145Z,74.05
2022-09-06T21:58:06.182Z,70.16
2022-09-06T22:04:08.464Z,71.65
2022-09-06T22:10:10.197Z,70.49
2022-09-06T22:16:13.215Z,69.60
2022-09-06T22:22:15.076Z,69.37
2022-09-06T22:28:16.879Z,69.56
2022-09-06T22:34:18.772Z,68.95
2022-09-06T22:40:20.726Z,68.73
2022-09-06T22:46:23.167Z,67.46
2022-09-06T22:52:25.029Z,68.50
2022-09-06T22:58:27.222Z,69.82
2022-09-06T23:04:29.192Z,69.52
2022-09-06T23:10:32.410Z,73.47
2022-09-06T23:16:34.369Z,72.12
2022-09-06T23:22:36.228Z,68.72
2022-09-06T23:28:39.032Z,70.08
2022-09-06T23:34:40.777Z,68.41
2022-09-06T23:40:42.493Z,67.79
2022-09-06T23:46:44.382Z,69.36
2022-09-06T23:52:46.404Z,69.78
2022-09-06T23:58:48.214Z,69.81
